createdAt,value
2022-11-02T01:18:12.207Z,10.10
2022-11-02T01:20:39.381Z,10.10
2022-11-02T01:23:06.480Z,10.10
2022-11-02T01:25:33.234Z,10.00
2022-11-02T01:28:01.217Z,10.00
2022-11-02T01:30:30.694Z,10.00
2022-11-02T01:32:58.585Z,10.10
2022-11-02T01:35:27.211Z,10.20
2022-11-02T01:37:55.847Z,10.30
2022-11-02T01:40:23.541Z,10.30
2022-11-02T01:42:51.239Z,10.30
2022-11-02T01:45:19.893Z,10.20
2022-11-02T01:47:48.611Z,10.30
2022-11-02T01:50:21.535Z,10.20
2022-11-02T01:52:48.810Z,10.20
2022-11-02T01:55:21.260Z,10.20
2022-11-02T01:57:53.397Z,10.30
2022-11-02T02:00:20.273Z,10.30
2022-11-02T02:02:50.486Z,10.40
2022-11-02T02:05:22.383Z,10.50
2022-11-02T02:07:51.247Z,10.50
2022-11-02T02:10:19.713Z,10.50
2022-11-02T02:12:47.489Z,10.40
2022-11-02T02:15:18.489Z,10.50
2022-11-02T02:18:05.287Z,10.60
2022-11-02T02:20:47.868Z,10.40
2022-11-02T02:23:27.508Z,10.40
2022-11-02T02:26:04.153Z,10.40
2022-11-02T02:28:36.575Z,10.30
2022-11-02T02:31:12.818Z,10.30
2022-11-02T02:33:43.661Z,10.20
2022-11-02T02:36:19.938Z,10.10
2022-11-02T02:38:48.750Z,10.10
2022-11-02T02:41:26.418Z,10.10
2022-11-02T02:43:57.083Z,10.00
2022-11-02T02:46:28.902Z,10.00
2022-11-02T02:48:58.512Z,10.00
2022-11-02T02:51:31.211Z,10.00
2022-11-02T02:54:01.838Z,10.00
2022-11-02T02:56:30.558Z,10.00
2022-11-02T02:59:00.232Z,10.00
2022-11-02T03:01:29.954Z,10.00
2022-11-02T03:03:57.530Z,10.10
2022-11-02T03:06:27.116Z,10.20
2022-11-02T03:09:16.490Z,10.20
2022-11-02T03:11:56.263Z,10.30
2022-11-02T03:14:39.297Z,10.30
2022-11-02T03:17:11.939Z,10.40
2022-11-02T03:19:43.131Z,10.50
2022-11-02T03:22:21.087Z,10.50
2022-11-02T03:24:49.157Z,10.60
2022-11-02T03:27:22.260Z,10.70
2022-11-02T03:30:03.347Z,10.70
2022-11-02T03:32:41.671Z,10.70
2022-11-02T03:35:17.846Z,10.70
2022-11-02T03:38:08.537Z,10.70
2022-11-02T03:40:39.154Z,10.70
2022-11-02T03:43:07.973Z,10.50
2022-11-02T03:45:38.784Z,10.40
2022-11-02T03:48:07.408Z,10.40
2022-11-02T03:50:38.952Z,10.30
2022-11-02T03:53:14.809Z,10.30
2022-11-02T03:55:46.701Z,10.40
2022-11-02T03:58:16.061Z,10.40
2022-11-02T04:00:51.905Z,10.40
2022-11-02T04:03:23.093Z,10.40
2022-11-02T04:05:50.050Z,10.50
2022-11-02T04:08:29.945Z,10.40
2022-11-02T04:11:22.163Z,10.40
2022-11-02T04:14:09.588Z,10.40
2022-11-02T04:16:40.549Z,10.30
2022-11-02T04:19:28.999Z,10.30
2022-11-02T04:22:22.300Z,10.30
2022-11-02T04:25:13.165Z,10.30
2022-11-02T04:27:43.817Z,10.20
2022-11-02T04:30:11.467Z,10.30
2022-11-02T04:32:59.203Z,10.20
2022-11-02T04:35:30.516Z,10.30
2022-11-02T04:38:18.601Z,10.40
2022-11-02T04:40:46.012Z,10.40
2022-11-02T04:43:13.285Z,10.50
2022-11-02T04:45:40.488Z,10.60
2022-11-02T04:48:09.106Z,10.60
2022-11-02T04:50:37.328Z,10.70
2022-11-02T04:53:05.475Z,10.70
2022-11-02T04:55:33.464Z,10.80
2022-11-02T04:58:00.367Z,10.90
2022-11-02T05:00:27.710Z,10.90
2022-11-02T05:02:55.480Z,11.00
2022-11-02T05:05:25.083Z,11.10
2022-11-02T05:07:55.821Z,11.20
2022-11-02T05:10:23.493Z,11.20
2022-11-02T05:12:59.374Z,11.30
2022-11-02T05:15:30.222Z,11.30
2022-11-02T05:17:59.495Z,11.40
2022-11-02T05:20:29.454Z,11.50
2022-11-02T05:22:57.885Z,11.50
2022-11-02T05:25:26.768Z,11.50
2022-11-02T05:27:57.544Z,11.50
2022-11-02T05:30:24.974Z,11.50
2022-11-02T05:32:58.167Z,11.60
2022-11-02T05:35:25.044Z,11.60
2022-11-02T05:37:55.138Z,11.60
2022-11-02T05:40:24.243Z,11.60
2022-11-02T05:42:51.939Z,11.60
2022-11-02T05:45:23.562Z,11.60
2022-11-02T05:47:52.266Z,11.70
2022-11-02T05:50:20.412Z,11.60
2022-11-02T05:52:48.465Z,11.70
2022-11-02T05:55:17.069Z,11.70
2022-11-02T05:57:44.769Z,11.70
2022-11-02T06:00:12.351Z,11.70
2022-11-02T06:02:39.959Z,11.70
2022-11-02T06:05:07.587Z,11.80
2022-11-02T06:07:37.273Z,11.70
2022-11-02T06:10:05.097Z,11.80
2022-11-02T06:12:33.987Z,11.80
2022-11-02T06:15:01.722Z,11.80
2022-11-02T06:17:29.368Z,11.80
2022-11-02T06:19:56.955Z,11.90
2022-11-02T06:22:24.631Z,11.90
2022-11-02T06:24:52.677Z,11.90
2022-11-02T06:27:20.544Z,11.90
2022-11-02T06:29:49.277Z,11.90
2022-11-02T06:32:18.441Z,11.90
2022-11-02T06:34:46.682Z,12.00
2022-11-02T06:37:14.255Z,12.00
2022-11-02T06:39:44.032Z,12.10
2022-11-02T06:42:11.783Z,12.10
2022-11-02T06:44:40.457Z,12.10
2022-11-02T06:47:08.088Z,12.20
2022-11-02T06:49:35.890Z,12.30
2022-11-02T06:52:02.660Z,12.30
2022-11-02T06:54:30.188Z,12.40
2022-11-02T06:56:56.981Z,12.50
2022-11-02T06:59:25.731Z,12.50
2022-11-02T07:01:55.419Z,12.60
2022-11-02T07:04:23.968Z,12.60
2022-11-02T07:06:51.653Z,12.70
2022-11-02T07:09:20.256Z,12.70
2022-11-02T07:11:47.985Z,12.70
2022-11-02T07:14:15.973Z,12.80
2022-11-02T07:16:42.951Z,12.80
2022-11-02T07:19:11.242Z,12.80
2022-11-02T07:21:41.341Z,12.90
2022-11-02T07:24:12.546Z,12.90
2022-11-02T07:26:41.189Z,12.90
2022-11-02T07:29:08.787Z,12.90
2022-11-02T07:31:36.494Z,13.00
2022-11-02T07:34:04.036Z,13.00
2022-11-02T07:36:30.761Z,13.00
2022-11-02T07:38:58.033Z,13.00
2022-11-02T07:41:25.065Z,13.10
2022-11-02T07:43:52.819Z,13.00
2022-11-02T07:46:32.948Z,13.10
2022-11-02T07:49:01.878Z,13.10
2022-11-02T07:51:31.501Z,13.20
2022-11-02T07:53:59.091Z,13.20
2022-11-02T07:56:26.709Z,13.20
2022-11-02T07:58:54.337Z,13.20
2022-11-02T08:01:23.025Z,13.10
2022-11-02T08:03:50.590Z,13.10
2022-11-02T08:06:19.203Z,13.10
2022-11-02T08:08:46.874Z,13.10
2022-11-02T08:11:15.480Z,13.10
2022-11-02T08:13:43.233Z,13.20
2022-11-02T08:16:10.988Z,13.10
2022-11-02T08:18:38.893Z,13.10
2022-11-02T08:21:07.783Z,13.10
2022-11-02T08:23:35.141Z,13.10
2022-11-02T08:26:02.389Z,13.10
2022-11-02T08:28:36.582Z,13.00
2022-11-02T08:31:04.282Z,13.10
2022-11-02T08:33:32.155Z,13.10
2022-11-02T08:36:05.769Z,13.10
2022-11-02T08:38:33.407Z,13.20
2022-11-02T08:41:00.989Z,13.10
2022-11-02T08:43:29.728Z,13.00
2022-11-02T08:46:14.483Z,13.10
2022-11-02T08:48:42.715Z,13.00
2022-11-02T08:53:52.305Z,13.00
2022-11-02T08:56:19.999Z,13.10
2022-11-02T08:58:46.774Z,13.00
2022-11-02T09:01:14.710Z,13.10
2022-11-02T09:03:44.238Z,13.20
2022-11-02T09:06:12.188Z,13.30
2022-11-02T09:08:39.770Z,13.30
2022-11-02T09:11:08.283Z,13.20
2022-11-02T09:13:35.977Z,13.20
2022-11-02T09:16:03.849Z,13.30
2022-11-02T09:18:31.452Z,13.30
2022-11-02T09:21:02.188Z,13.30
2022-11-02T09:23:32.796Z,13.40
2022-11-02T09:26:01.441Z,13.50
2022-11-02T09:28:30.185Z,13.60
2022-11-02T09:30:59.689Z,13.70
2022-11-02T09:33:29.369Z,13.70
2022-11-02T09:36:02.016Z,13.80
2022-11-02T09:38:33.655Z,13.90
2022-11-02T09:41:07.183Z,13.80
2022-11-02T09:43:43.952Z,13.90
2022-11-02T09:46:14.739Z,13.90
2022-11-02T09:48:47.334Z,13.90
2022-11-02T09:51:23.165Z,14.00
2022-11-02T09:54:11.650Z,14.10
2022-11-02T09:56:44.621Z,14.00
2022-11-02T09:59:13.308Z,14.00
2022-11-02T10:01:56.858Z,14.10
2022-11-02T10:04:29.896Z,14.10
2022-11-02T10:07:02.292Z,14.20
2022-11-02T10:09:49.243Z,14.20
2022-11-02T10:12:21.960Z,14.10
2022-11-02T10:14:57.647Z,14.20
2022-11-02T10:17:31.814Z,14.20
2022-11-02T10:20:02.926Z,14.20
2022-11-02T10:22:35.699Z,14.30
2022-11-02T10:25:08.311Z,14.20
2022-11-02T10:27:39.213Z,14.30
2022-11-02T10:30:12.813Z,14.30
2022-11-02T10:32:40.179Z,14.30
2022-11-02T10:35:51.025Z,14.40
2022-11-02T10:38:34.937Z,14.40
2022-11-02T10:41:11.568Z,14.40
2022-11-02T10:43:49.532Z,14.40
2022-11-02T10:46:28.037Z,14.40
2022-11-02T10:49:07.590Z,14.40
2022-11-02T10:51:36.223Z,14.40
2022-11-02T10:54:11.899Z,14.60
2022-11-02T10:56:40.514Z,14.60
2022-11-02T10:59:14.286Z,14.70
2022-11-02T11:02:04.022Z,14.70
2022-11-02T11:04:34.732Z,14.70
2022-11-02T11:07:06.370Z,14.70
2022-11-02T11:09:50.116Z,14.70
2022-11-02T11:12:38.862Z,14.80
2022-11-02T11:20:43.852Z,15.30
2022-11-02T11:23:16.946Z,15.40
2022-11-02T11:25:53.587Z,15.40
2022-11-02T11:28:26.283Z,15.40
2022-11-02T11:31:05.423Z,15.40
2022-11-02T11:33:33.771Z,15.30
2022-11-02T11:36:01.763Z,15.40
2022-11-02T11:38:29.029Z,15.30
2022-11-02T11:40:58.304Z,15.40
2022-11-02T11:43:27.230Z,15.30
2022-11-02T11:46:05.967Z,15.30
2022-11-02T11:48:37.757Z,15.40
2022-11-02T11:51:07.357Z,15.40
2022-11-02T11:53:37.380Z,15.40
2022-11-02T11:56:04.581Z,15.40
2022-11-02T11:58:34.282Z,15.50
2022-11-02T12:01:10.842Z,15.50
2022-11-02T12:03:50.912Z,15.50
2022-11-02T12:06:38.552Z,15.40
2022-11-02T12:09:16.491Z,15.40
2022-11-02T12:11:46.557Z,15.50
2022-11-02T12:14:17.606Z,15.50
2022-11-02T12:17:06.781Z,15.50
2022-11-02T12:19:43.549Z,15.50
2022-11-02T12:22:10.485Z,15.60
2022-11-02T12:24:49.629Z,15.70
2022-11-02T12:27:20.562Z,15.60
2022-11-02T12:29:58.914Z,15.70
2022-11-02T12:32:29.711Z,15.70
2022-11-02T12:35:23.051Z,15.60
2022-11-02T12:38:05.453Z,15.60
2022-11-02T12:40:51.552Z,15.50
2022-11-02T12:43:39.355Z,15.50
2022-11-02T12:46:23.117Z,15.50
2022-11-02T12:48:57.016Z,15.30
2022-11-02T12:51:29.195Z,15.20
2022-11-02T12:54:02.887Z,15.10
2022-11-02T12:56:36.046Z,15.10
2022-11-02T12:59:09.796Z,15.00
2022-11-02T13:01:43.608Z,15.10
2022-11-02T13:04:26.003Z,15.10
2022-11-02T13:07:02.865Z,15.00
2022-11-02T13:09:37.610Z,14.90
2022-11-02T13:12:16.149Z,14.90
2022-11-02T13:14:45.339Z,14.80
2022-11-02T13:17:22.108Z,14.80
2022-11-02T13:19:54.052Z,14.80
2022-11-02T13:22:25.827Z,14.80
2022-11-02T13:24:56.258Z,14.80
2022-11-02T13:27:37.273Z,14.80
2022-11-02T13:30:13.586Z,14.80
2022-11-02T13:32:45.329Z,14.90
2022-11-02T13:35:28.251Z,15.00
2022-11-02T13:38:08.171Z,14.90
2022-11-02T13:40:41.913Z,14.90
2022-11-02T13:43:39.614Z,14.80
2022-11-02T13:46:08.582Z,14.80
2022-11-02T13:48:37.295Z,14.70
2022-11-02T13:51:12.834Z,14.70
2022-11-02T13:53:46.796Z,14.60
2022-11-02T13:56:22.284Z,14.60
2022-11-02T13:58:57.103Z,14.60
2022-11-02T14:01:25.697Z,14.60
2022-11-02T14:04:04.570Z,14.60
2022-11-02T14:06:34.201Z,14.60
2022-11-02T14:09:09.784Z,14.60
2022-11-02T14:11:40.534Z,14.60
2022-11-02T14:14:09.156Z,14.70
2022-11-02T14:16:45.742Z,14.70
2022-11-02T14:19:20.603Z,14.70
2022-11-02T14:21:50.463Z,14.70
2022-11-02T14:24:33.234Z,14.70
2022-11-02T14:27:13.015Z,14.60
2022-11-02T14:29:45.659Z,14.60
2022-11-02T14:32:24.569Z,14.60
2022-11-02T14:34:51.942Z,14.60
2022-11-02T14:37:33.866Z,14.50
2022-11-02T14:40:23.863Z,14.40
2022-11-02T14:42:51.476Z,14.40
2022-11-02T14:45:23.335Z,14.40
2022-11-02T14:47:57.963Z,14.40
2022-11-02T14:50:26.644Z,14.40
2022-11-02T14:53:00.282Z,14.40
2022-11-02T14:55:33.150Z,14.30
2022-11-02T14:58:00.935Z,14.40
2022-11-02T15:00:33.598Z,14.30
2022-11-02T15:03:01.498Z,14.30
2022-11-02T15:05:37.116Z,14.30
2022-11-02T15:08:18.665Z,14.30
2022-11-02T15:10:46.850Z,14.20
2022-11-02T15:13:20.514Z,14.20
2022-11-02T15:15:51.835Z,14.10
2022-11-02T15:18:29.065Z,14.10
2022-11-02T15:21:12.815Z,14.10
2022-11-02T15:23:59.602Z,14.00
2022-11-02T15:26:42.162Z,13.90
2022-11-02T15:29:17.064Z,13.60
2022-11-02T15:31:49.732Z,13.50
2022-11-02T15:34:19.505Z,13.40
2022-11-02T15:36:47.609Z,13.30
2022-11-02T15:39:19.031Z,13.00
2022-11-02T15:41:49.702Z,12.90
2022-11-02T15:44:17.324Z,12.80
2022-11-02T15:46:48.993Z,12.70
2022-11-02T15:49:22.709Z,12.60
2022-11-02T15:51:59.601Z,12.30
2022-11-02T15:54:46.197Z,12.20
2022-11-02T15:57:26.049Z,12.00
2022-11-02T16:00:04.978Z,11.80
2022-11-02T16:02:39.587Z,11.70
2022-11-02T16:05:07.178Z,11.50
2022-11-02T16:07:57.438Z,11.50
2022-11-02T16:10:29.821Z,11.40
2022-11-02T16:12:59.422Z,11.30
2022-11-02T16:15:28.110Z,11.20
2022-11-02T16:17:56.792Z,11.10
2022-11-02T16:20:31.640Z,11.00
2022-11-02T16:23:06.322Z,11.00
2022-11-02T16:25:39.651Z,10.90
2022-11-02T16:28:27.388Z,10.80
2022-11-02T16:31:15.714Z,10.70
2022-11-02T16:33:56.101Z,10.50
2022-11-02T16:36:26.849Z,10.40
2022-11-02T16:39:01.567Z,10.40
2022-11-02T16:41:31.268Z,10.30
2022-11-02T16:44:01.134Z,10.30
2022-11-02T16:46:31.840Z,10.10
2022-11-02T16:49:02.535Z,10.10
2022-11-02T16:51:30.943Z,10.00
2022-11-02T16:54:18.784Z,9.90
2022-11-02T16:56:50.189Z,9.90
2022-11-02T16:59:17.621Z,9.80
2022-11-02T17:01:46.000Z,9.60
2022-11-02T17:04:20.959Z,9.60
2022-11-02T17:06:50.459Z,9.60
2022-11-02T17:09:24.180Z,9.50
2022-11-02T17:11:52.797Z,9.50
2022-11-02T17:14:23.684Z,9.40
2022-11-02T17:17:04.173Z,9.30
2022-11-02T17:19:57.102Z,9.30
2022-11-02T17:22:27.948Z,9.20
2022-11-02T17:25:04.810Z,9.20
2022-11-02T17:27:39.242Z,9.10
2022-11-02T17:30:29.942Z,8.90
2022-11-02T17:32:59.631Z,8.90
2022-11-02T17:35:28.364Z,8.80
2022-11-02T17:37:56.002Z,8.80
2022-11-02T17:40:27.716Z,8.70
2022-11-02T17:42:59.427Z,8.60
2022-11-02T17:45:32.392Z,8.60
2022-11-02T17:48:06.439Z,8.50
2022-11-02T17:50:39.743Z,8.50
2022-11-02T17:53:10.544Z,8.40
2022-11-02T17:55:40.571Z,8.40
2022-11-02T17:58:18.472Z,8.40
